sensor_id;sensor_type;location;lat;lon;timestamp;P1;durP1;ratioP1;P2;durP2;ratioP2
974;SDS011;6115;49.296;10.602;2023-12-28T00:04:19;70.80;;;12.57;;
974;SDS011;6115;49.296;10.602;2023-12-28T00:09:20;70.13;;;12.70;;
974;SDS011;6115;49.296;10.602;2023-12-28T00:14:20;73.67;;;13.63;;
974;SDS011;6115;49.296;10.602;2023-12-28T00:19:21;72.17;;;13.90;;
974;SDS011;6115;49.296;10.602;2023-12-28T00:24:21;72.37;;;13.60;;
974;SDS011;6115;49.296;10.602;2023-12-28T00:29:22;70.20;;;13.30;;
974;SDS011;6115;49.296;10.602;2023-12-28T00:34:23;69.77;;;12.47;;
974;SDS011;6115;49.296;10.602;2023-12-28T00:39:23;70.17;;;12.30;;
974;SDS011;6115;49.296;10.602;2023-12-28T00:44:24;71.60;;;13.67;;
974;SDS011;6115;49.296;10.602;2023-12-28T00:49:24;70.73;;;13.43;;
974;SDS011;6115;49.296;10.602;2023-12-28T00:54:25;72.00;;;13.57;;
974;SDS011;6115;49.296;10.602;2023-12-28T00:59:25;71.57;;;14.57;;
974;SDS011;6115;49.296;10.602;2023-12-28T01:04:26;71.67;;;15.00;;
974;SDS011;6115;49.296;10.602;2023-12-28T01:09:27;73.13;;;15.47;;
974;SDS011;6115;49.296;10.602;2023-12-28T01:14:30;70.30;;;14.03;;
974;SDS011;6115;49.296;10.602;2023-12-28T01:19:31;73.10;;;13.57;;
974;SDS011;6115;49.296;10.602;2023-12-28T01:24:31;72.87;;;14.40;;
974;SDS011;6115;49.296;10.602;2023-12-28T01:29:32;71.10;;;14.33;;
974;SDS011;6115;49.296;10.602;2023-12-28T01:34:35;70.90;;;13.93;;
974;SDS011;6115;49.296;10.602;2023-12-28T01:39:36;72.77;;;15.27;;
974;SDS011;6115;49.296;10.602;2023-12-28T01:44:36;70.90;;;13.90;;
974;SDS011;6115;49.296;10.602;2023-12-28T01:49:37;72.70;;;14.90;;
974;SDS011;6115;49.296;10.602;2023-12-28T01:54:38;71.30;;;13.60;;
974;SDS011;6115;49.296;10.602;2023-12-28T01:59:39;70.90;;;13.60;;
974;SDS011;6115;49.296;10.602;2023-12-28T02:04:41;71.10;;;13.90;;
974;SDS011;6115;49.296;10.602;2023-12-28T02:09:41;70.00;;;13.20;;
974;SDS011;6115;49.296;10.602;2023-12-28T02:14:42;70.23;;;13.13;;
974;SDS011;6115;49.296;10.602;2023-12-28T02:19:50;71.80;;;14.20;;
974;SDS011;6115;49.296;10.602;2023-12-28T02:25:11;70.87;;;13.50;;
974;SDS011;6115;49.296;10.602;2023-12-28T02:30:12;70.67;;;13.20;;
974;SDS011;6115;49.296;10.602;2023-12-28T02:35:25;72.27;;;14.50;;
974;SDS011;6115;49.296;10.602;2023-12-28T02:40:38;71.00;;;13.60;;
974;SDS011;6115;49.296;10.602;2023-12-28T02:45:40;72.67;;;14.33;;
974;SDS011;6115;49.296;10.602;2023-12-28T02:50:40;75.20;;;15.00;;
974;SDS011;6115;49.296;10.602;2023-12-28T02:55:41;71.77;;;14.90;;
974;SDS011;6115;49.296;10.602;2023-12-28T03:00:41;73.77;;;14.93;;
974;SDS011;6115;49.296;10.602;2023-12-28T03:05:42;70.40;;;13.83;;
974;SDS011;6115;49.296;10.602;2023-12-28T03:10:43;73.07;;;15.27;;
974;SDS011;6115;49.296;10.602;2023-12-28T03:15:43;74.30;;;13.77;;
974;SDS011;6115;49.296;10.602;2023-12-28T03:20:44;70.70;;;13.80;;
974;SDS011;6115;49.296;10.602;2023-12-28T03:25:44;70.20;;;13.83;;
974;SDS011;6115;49.296;10.602;2023-12-28T03:30:45;70.60;;;13.73;;
974;SDS011;6115;49.296;10.602;2023-12-28T03:35:45;71.67;;;15.23;;
974;SDS011;6115;49.296;10.602;2023-12-28T03:40:46;70.90;;;13.93;;
974;SDS011;6115;49.296;10.602;2023-12-28T03:45:47;71.37;;;14.87;;
974;SDS011;6115;49.296;10.602;2023-12-28T03:50:48;70.20;;;13.17;;
974;SDS011;6115;49.296;10.602;2023-12-28T03:55:49;69.97;;;13.30;;
974;SDS011;6115;49.296;10.602;2023-12-28T04:00:50;75.80;;;13.13;;
974;SDS011;6115;49.296;10.602;2023-12-28T04:05:50;72.53;;;14.90;;
974;SDS011;6115;49.296;10.602;2023-12-28T04:10:51;70.30;;;14.20;;
974;SDS011;6115;49.296;10.602;2023-12-28T04:15:52;70.50;;;14.23;;
974;SDS011;6115;49.296;10.602;2023-12-28T04:20:52;72.57;;;13.83;;
974;SDS011;6115;49.296;10.602;2023-12-28T04:25:53;70.03;;;13.57;;
974;SDS011;6115;49.296;10.602;2023-12-28T04:30:54;70.47;;;14.20;;
974;SDS011;6115;49.296;10.602;2023-12-28T04:35:54;71.57;;;14.53;;
974;SDS011;6115;49.296;10.602;2023-12-28T04:40:55;69.60;;;13.40;;
974;SDS011;6115;49.296;10.602;2023-12-28T04:45:55;70.80;;;14.43;;
974;SDS011;6115;49.296;10.602;2023-12-28T04:50:56;70.47;;;13.90;;
974;SDS011;6115;49.296;10.602;2023-12-28T04:55:57;71.40;;;14.27;;
974;SDS011;6115;49.296;10.602;2023-12-28T05:00:57;70.10;;;13.47;;
974;SDS011;6115;49.296;10.602;2023-12-28T05:05:58;71.73;;;14.10;;
974;SDS011;6115;49.296;10.602;2023-12-28T05:10:58;70.63;;;13.67;;
974;SDS011;6115;49.296;10.602;2023-12-28T05:15:59;70.60;;;14.40;;
974;SDS011;6115;49.296;10.602;2023-12-28T05:21:00;71.60;;;15.03;;
974;SDS011;6115;49.296;10.602;2023-12-28T05:26:01;72.57;;;14.83;;
974;SDS011;6115;49.296;10.602;2023-12-28T05:31:02;72.70;;;16.00;;
974;SDS011;6115;49.296;10.602;2023-12-28T05:36:02;72.17;;;14.50;;
974;SDS011;6115;49.296;10.602;2023-12-28T05:41:03;72.50;;;15.80;;
974;SDS011;6115;49.296;10.602;2023-12-28T05:46:04;75.80;;;16.70;;
974;SDS011;6115;49.296;10.602;2023-12-28T05:51:05;73.13;;;14.93;;
974;SDS011;6115;49.296;10.602;2023-12-28T05:56:05;72.00;;;14.87;;
974;SDS011;6115;49.296;10.602;2023-12-28T06:01:06;70.40;;;13.80;;
974;SDS011;6115;49.296;10.602;2023-12-28T06:06:07;73.80;;;15.10;;
974;SDS011;6115;49.296;10.602;2023-12-28T06:11:07;70.70;;;14.63;;
974;SDS011;6115;49.296;10.602;2023-12-28T06:16:08;70.70;;;13.70;;
974;SDS011;6115;49.296;10.602;2023-12-28T06:21:09;72.47;;;14.87;;
974;SDS011;6115;49.296;10.602;2023-12-28T06:26:10;71.50;;;13.97;;
974;SDS011;6115;49.296;10.602;2023-12-28T06:31:10;70.80;;;14.73;;
974;SDS011;6115;49.296;10.602;2023-12-28T06:36:11;70.57;;;14.30;;
974;SDS011;6115;49.296;10.602;2023-12-28T06:41:12;71.03;;;15.20;;
974;SDS011;6115;49.296;10.602;2023-12-28T06:46:13;70.47;;;14.80;;
974;SDS011;6115;49.296;10.602;2023-12-28T06:51:17;70.27;;;15.00;;
974;SDS011;6115;49.296;10.602;2023-12-28T06:56:19;71.40;;;14.57;;
974;SDS011;6115;49.296;10.602;2023-12-28T07:01:19;72.40;;;15.50;;
974;SDS011;6115;49.296;10.602;2023-12-28T07:06:20;70.77;;;15.07;;
974;SDS011;6115;49.296;10.602;2023-12-28T07:11:21;70.07;;;13.67;;
974;SDS011;6115;49.296;10.602;2023-12-28T07:16:22;71.97;;;13.90;;
974;SDS011;6115;49.296;10.602;2023-12-28T07:21:22;70.27;;;13.40;;
974;SDS011;6115;49.296;10.602;2023-12-28T07:26:23;70.20;;;13.47;;
974;SDS011;6115;49.296;10.602;2023-12-28T07:31:24;71.77;;;13.33;;
974;SDS011;6115;49.296;10.602;2023-12-28T07:36:26;70.50;;;11.90;;
974;SDS011;6115;49.296;10.602;2023-12-28T07:41:26;76.40;;;13.50;;
974;SDS011;6115;49.296;10.602;2023-12-28T07:46:27;69.70;;;12.30;;
974;SDS011;6115;49.296;10.602;2023-12-28T07:51:27;69.13;;;11.63;;
974;SDS011;6115;49.296;10.602;2023-12-28T07:56:28;68.87;;;12.43;;
974;SDS011;6115;49.296;10.602;2023-12-28T08:01:28;68.40;;;11.50;;
974;SDS011;6115;49.296;10.602;2023-12-28T08:06:29;70.47;;;13.23;;
974;SDS011;6115;49.296;10.602;2023-12-28T08:11:33;70.37;;;12.50;;
974;SDS011;6115;49.296;10.602;2023-12-28T08:16:33;71.20;;;12.93;;
974;SDS011;6115;49.296;10.602;2023-12-28T08:21:35;69.07;;;12.10;;
974;SDS011;6115;49.296;10.602;2023-12-28T08:26:35;70.97;;;14.00;;
974;SDS011;6115;49.296;10.602;2023-12-28T08:31:36;69.47;;;12.50;;
974;SDS011;6115;49.296;10.602;2023-12-28T08:36:36;68.20;;;11.93;;
974;SDS011;6115;49.296;10.602;2023-12-28T08:41:37;70.37;;;11.80;;
974;SDS011;6115;49.296;10.602;2023-12-28T08:46:38;67.97;;;11.53;;
974;SDS011;6115;49.296;10.602;2023-12-28T08:51:38;69.97;;;12.47;;
974;SDS011;6115;49.296;10.602;2023-12-28T08:56:39;68.60;;;11.40;;
974;SDS011;6115;49.296;10.602;2023-12-28T09:01:39;68.37;;;11.07;;
974;SDS011;6115;49.296;10.602;2023-12-28T09:06:40;69.57;;;11.20;;
974;SDS011;6115;49.296;10.602;2023-12-28T09:11:41;68.80;;;10.60;;
974;SDS011;6115;49.296;10.602;2023-12-28T09:16:41;68.60;;;11.30;;
974;SDS011;6115;49.296;10.602;2023-12-28T09:21:43;67.40;;;10.10;;
974;SDS011;6115;49.296;10.602;2023-12-28T09:26:44;68.93;;;11.17;;
974;SDS011;6115;49.296;10.602;2023-12-28T09:31:45;69.30;;;11.03;;
974;SDS011;6115;49.296;10.602;2023-12-28T09:36:46;67.70;;;10.83;;
974;SDS011;6115;49.296;10.602;2023-12-28T09:41:49;67.80;;;10.27;;
974;SDS011;6115;49.296;10.602;2023-12-28T09:47:01;67.20;;;9.23;;
974;SDS011;6115;49.296;10.602;2023-12-28T09:52:02;68.47;;;10.40;;
974;SDS011;6115;49.296;10.602;2023-12-28T09:57:03;72.87;;;12.47;;
974;SDS011;6115;49.296;10.602;2023-12-28T10:02:04;74.87;;;12.60;;
974;SDS011;6115;49.296;10.602;2023-12-28T10:07:05;69.00;;;10.07;;
974;SDS011;6115;49.296;10.602;2023-12-28T10:12:05;68.67;;;9.80;;
974;SDS011;6115;49.296;10.602;2023-12-28T10:17:07;66.90;;;8.17;;
974;SDS011;6115;49.296;10.602;2023-12-28T10:22:09;65.70;;;7.90;;
974;SDS011;6115;49.296;10.602;2023-12-28T10:27:10;67.10;;;8.03;;
974;SDS011;6115;49.296;10.602;2023-12-28T10:32:10;67.97;;;9.13;;
974;SDS011;6115;49.296;10.602;2023-12-28T10:37:11;65.70;;;8.30;;
974;SDS011;6115;49.296;10.602;2023-12-28T10:42:13;66.80;;;8.70;;
974;SDS011;6115;49.296;10.602;2023-12-28T10:47:16;68.50;;;8.90;;
974;SDS011;6115;49.296;10.602;2023-12-28T10:52:19;66.17;;;8.27;;
974;SDS011;6115;49.296;10.602;2023-12-28T10:57:23;68.17;;;8.90;;
974;SDS011;6115;49.296;10.602;2023-12-28T11:02:33;65.60;;;8.13;;
974;SDS011;6115;49.296;10.602;2023-12-28T11:07:58;70.13;;;9.60;;
974;SDS011;6115;49.296;10.602;2023-12-28T11:13:00;69.73;;;8.50;;
974;SDS011;6115;49.296;10.602;2023-12-28T11:18:02;67.57;;;8.63;;
974;SDS011;6115;49.296;10.602;2023-12-28T11:23:02;66.90;;;8.80;;
974;SDS011;6115;49.296;10.602;2023-12-28T11:28:10;66.07;;;8.30;;
974;SDS011;6115;49.296;10.602;2023-12-28T11:33:11;67.70;;;8.93;;
974;SDS011;6115;49.296;10.602;2023-12-28T11:38:12;65.87;;;8.20;;
974;SDS011;6115;49.296;10.602;2023-12-28T11:43:20;65.83;;;7.93;;
974;SDS011;6115;49.296;10.602;2023-12-28T11:48:24;66.40;;;7.93;;
974;SDS011;6115;49.296;10.602;2023-12-28T11:53:26;65.13;;;7.40;;
974;SDS011;6115;49.296;10.602;2023-12-28T11:58:27;66.40;;;8.40;;
974;SDS011;6115;49.296;10.602;2023-12-28T12:03:28;65.90;;;7.80;;
974;SDS011;6115;49.296;10.602;2023-12-28T12:08:29;67.07;;;8.13;;
974;SDS011;6115;49.296;10.602;2023-12-28T12:13:30;66.70;;;8.63;;
974;SDS011;6115;49.296;10.602;2023-12-28T12:18:32;67.60;;;8.40;;
974;SDS011;6115;49.296;10.602;2023-12-28T12:23:33;66.40;;;8.83;;
974;SDS011;6115;49.296;10.602;2023-12-28T12:28:34;75.03;;;8.90;;
974;SDS011;6115;49.296;10.602;2023-12-28T12:33:35;65.57;;;7.67;;
974;SDS011;6115;49.296;10.602;2023-12-28T12:38:36;69.30;;;9.17;;
974;SDS011;6115;49.296;10.602;2023-12-28T12:43:36;66.33;;;8.60;;
974;SDS011;6115;49.296;10.602;2023-12-28T12:48:37;67.00;;;9.50;;
974;SDS011;6115;49.296;10.602;2023-12-28T12:53:38;66.97;;;10.83;;
974;SDS011;6115;49.296;10.602;2023-12-28T12:58:40;65.60;;;8.03;;
974;SDS011;6115;49.296;10.602;2023-12-28T13:03:40;66.60;;;8.77;;
974;SDS011;6115;49.296;10.602;2023-12-28T13:08:41;68.57;;;8.87;;
974;SDS011;6115;49.296;10.602;2023-12-28T13:13:42;66.77;;;9.40;;
974;SDS011;6115;49.296;10.602;2023-12-28T13:18:42;66.63;;;9.17;;
974;SDS011;6115;49.296;10.602;2023-12-28T13:23:43;70.57;;;9.93;;
974;SDS011;6115;49.296;10.602;2023-12-28T13:28:43;67.03;;;9.97;;
974;SDS011;6115;49.296;10.602;2023-12-28T13:33:46;67.20;;;9.77;;
974;SDS011;6115;49.296;10.602;2023-12-28T13:38:46;67.33;;;9.20;;
974;SDS011;6115;49.296;10.602;2023-12-28T13:43:47;67.07;;;9.57;;
974;SDS011;6115;49.296;10.602;2023-12-28T13:48:48;67.17;;;9.87;;
974;SDS011;6115;49.296;10.602;2023-12-28T13:53:49;68.50;;;10.00;;
974;SDS011;6115;49.296;10.602;2023-12-28T13:58:50;67.40;;;10.07;;
974;SDS011;6115;49.296;10.602;2023-12-28T14:03:50;67.20;;;9.87;;
974;SDS011;6115;49.296;10.602;2023-12-28T14:08:51;67.07;;;10.00;;
974;SDS011;6115;49.296;10.602;2023-12-28T14:13:52;68.70;;;10.33;;
974;SDS011;6115;49.296;10.602;2023-12-28T14:18:52;67.30;;;9.83;;
974;SDS011;6115;49.296;10.602;2023-12-28T14:23:53;67.27;;;10.20;;
974;SDS011;6115;49.296;10.602;2023-12-28T14:28:54;68.30;;;11.07;;
974;SDS011;6115;49.296;10.602;2023-12-28T14:33:55;66.87;;;10.33;;
974;SDS011;6115;49.296;10.602;2023-12-28T14:38:56;66.93;;;9.50;;
974;SDS011;6115;49.296;10.602;2023-12-28T14:43:57;67.17;;;10.30;;
974;SDS011;6115;49.296;10.602;2023-12-28T14:48:58;66.57;;;9.40;;
974;SDS011;6115;49.296;10.602;2023-12-28T14:53:58;66.87;;;9.67;;
974;SDS011;6115;49.296;10.602;2023-12-28T14:58:59;67.43;;;10.27;;
974;SDS011;6115;49.296;10.602;2023-12-28T15:03:59;67.60;;;10.77;;
974;SDS011;6115;49.296;10.602;2023-12-28T15:09:00;67.67;;;10.57;;
974;SDS011;6115;49.296;10.602;2023-12-28T15:14:01;71.03;;;10.57;;
974;SDS011;6115;49.296;10.602;2023-12-28T15:19:01;67.90;;;11.20;;
974;SDS011;6115;49.296;10.602;2023-12-28T15:24:02;68.17;;;11.73;;
974;SDS011;6115;49.296;10.602;2023-12-28T15:29:04;67.80;;;10.87;;
974;SDS011;6115;49.296;10.602;2023-12-28T15:34:04;68.27;;;11.10;;
974;SDS011;6115;49.296;10.602;2023-12-28T15:39:05;67.50;;;10.77;;
974;SDS011;6115;49.296;10.602;2023-12-28T15:44:06;67.20;;;10.17;;
974;SDS011;6115;49.296;10.602;2023-12-28T15:49:07;68.50;;;10.80;;
974;SDS011;6115;49.296;10.602;2023-12-28T15:54:08;68.30;;;10.73;;
974;SDS011;6115;49.296;10.602;2023-12-28T15:59:08;68.63;;;11.90;;
974;SDS011;6115;49.296;10.602;2023-12-28T16:04:09;68.60;;;11.77;;
974;SDS011;6115;49.296;10.602;2023-12-28T16:09:09;70.30;;;12.50;;
974;SDS011;6115;49.296;10.602;2023-12-28T16:14:11;69.43;;;12.20;;
974;SDS011;6115;49.296;10.602;2023-12-28T16:19:11;70.90;;;12.33;;
974;SDS011;6115;49.296;10.602;2023-12-28T16:24:12;70.40;;;12.57;;
974;SDS011;6115;49.296;10.602;2023-12-28T16:29:13;69.07;;;12.33;;
974;SDS011;6115;49.296;10.602;2023-12-28T16:34:13;69.47;;;12.10;;
974;SDS011;6115;49.296;10.602;2023-12-28T16:39:14;69.57;;;13.10;;
974;SDS011;6115;49.296;10.602;2023-12-28T16:44:16;68.67;;;12.03;;
974;SDS011;6115;49.296;10.602;2023-12-28T16:49:16;68.90;;;11.80;;
974;SDS011;6115;49.296;10.602;2023-12-28T16:54:17;69.27;;;11.73;;
974;SDS011;6115;49.296;10.602;2023-12-28T16:59:18;70.10;;;12.23;;
974;SDS011;6115;49.296;10.602;2023-12-28T17:04:18;71.20;;;12.40;;
974;SDS011;6115;49.296;10.602;2023-12-28T17:09:19;69.20;;;11.87;;
974;SDS011;6115;49.296;10.602;2023-12-28T17:14:19;68.47;;;11.50;;
974;SDS011;6115;49.296;10.602;2023-12-28T17:19:20;68.80;;;11.70;;
974;SDS011;6115;49.296;10.602;2023-12-28T17:24:21;69.70;;;11.27;;
974;SDS011;6115;49.296;10.602;2023-12-28T17:29:24;75.13;;;11.80;;
974;SDS011;6115;49.296;10.602;2023-12-28T17:34:27;68.57;;;10.50;;
974;SDS011;6115;49.296;10.602;2023-12-28T17:39:28;69.20;;;10.90;;
974;SDS011;6115;49.296;10.602;2023-12-28T17:44:31;71.10;;;12.33;;
974;SDS011;6115;49.296;10.602;2023-12-28T17:49:38;71.43;;;13.03;;
974;SDS011;6115;49.296;10.602;2023-12-28T17:54:41;69.27;;;11.93;;
974;SDS011;6115;49.296;10.602;2023-12-28T17:59:42;68.03;;;11.23;;
974;SDS011;6115;49.296;10.602;2023-12-28T18:04:43;68.47;;;10.50;;
974;SDS011;6115;49.296;10.602;2023-12-28T18:09:44;69.03;;;11.30;;
974;SDS011;6115;49.296;10.602;2023-12-28T18:14:45;69.60;;;12.07;;
974;SDS011;6115;49.296;10.602;2023-12-28T18:19:45;67.67;;;9.60;;
974;SDS011;6115;49.296;10.602;2023-12-28T18:24:46;71.00;;;10.20;;
974;SDS011;6115;49.296;10.602;2023-12-28T18:29:50;68.70;;;10.80;;
974;SDS011;6115;49.296;10.602;2023-12-28T18:34:52;82.90;;;12.97;;
974;SDS011;6115;49.296;10.602;2023-12-28T18:39:53;69.73;;;10.63;;
974;SDS011;6115;49.296;10.602;2023-12-28T18:44:58;70.20;;;12.30;;
974;SDS011;6115;49.296;10.602;2023-12-28T18:49:59;70.50;;;11.80;;
974;SDS011;6115;49.296;10.602;2023-12-28T18:54:59;68.30;;;10.77;;
974;SDS011;6115;49.296;10.602;2023-12-28T19:00:00;70.20;;;11.87;;
974;SDS011;6115;49.296;10.602;2023-12-28T19:05:01;68.80;;;11.57;;
974;SDS011;6115;49.296;10.602;2023-12-28T19:10:02;70.13;;;12.60;;
974;SDS011;6115;49.296;10.602;2023-12-28T19:15:03;68.90;;;11.00;;
974;SDS011;6115;49.296;10.602;2023-12-28T19:20:04;71.30;;;12.30;;
974;SDS011;6115;49.296;10.602;2023-12-28T19:25:05;70.70;;;12.27;;
974;SDS011;6115;49.296;10.602;2023-12-28T19:30:06;69.10;;;11.03;;
974;SDS011;6115;49.296;10.602;2023-12-28T19:35:08;68.77;;;11.20;;
974;SDS011;6115;49.296;10.602;2023-12-28T19:40:11;71.23;;;12.30;;
974;SDS011;6115;49.296;10.602;2023-12-28T19:45:12;69.23;;;11.73;;
974;SDS011;6115;49.296;10.602;2023-12-28T19:50:13;70.07;;;12.60;;
974;SDS011;6115;49.296;10.602;2023-12-28T19:55:14;69.30;;;12.27;;
974;SDS011;6115;49.296;10.602;2023-12-28T20:00:14;69.80;;;12.80;;
974;SDS011;6115;49.296;10.602;2023-12-28T20:05:17;68.77;;;11.93;;
974;SDS011;6115;49.296;10.602;2023-12-28T20:10:18;74.83;;;12.70;;
974;SDS011;6115;49.296;10.602;2023-12-28T20:15:18;68.67;;;11.83;;
974;SDS011;6115;49.296;10.602;2023-12-28T20:20:23;69.47;;;12.20;;
974;SDS011;6115;49.296;10.602;2023-12-28T20:25:24;68.17;;;11.27;;
974;SDS011;6115;49.296;10.602;2023-12-28T20:30:24;70.73;;;12.70;;
974;SDS011;6115;49.296;10.602;2023-12-28T20:35:25;68.53;;;11.70;;
974;SDS011;6115;49.296;10.602;2023-12-28T20:40:25;67.77;;;11.20;;
974;SDS011;6115;49.296;10.602;2023-12-28T20:45:26;68.17;;;11.50;;
974;SDS011;6115;49.296;10.602;2023-12-28T20:50:26;68.37;;;11.07;;
974;SDS011;6115;49.296;10.602;2023-12-28T20:55:27;70.07;;;11.37;;
974;SDS011;6115;49.296;10.602;2023-12-28T21:00:28;68.90;;;11.70;;
974;SDS011;6115;49.296;10.602;2023-12-28T21:05:28;70.60;;;12.13;;
974;SDS011;6115;49.296;10.602;2023-12-28T21:10:29;70.07;;;12.17;;
974;SDS011;6115;49.296;10.602;2023-12-28T21:15:32;76.23;;;11.47;;
974;SDS011;6115;49.296;10.602;2023-12-28T21:20:33;68.27;;;11.10;;
974;SDS011;6115;49.296;10.602;2023-12-28T21:25:33;69.80;;;12.00;;
974;SDS011;6115;49.296;10.602;2023-12-28T21:30:34;69.40;;;12.63;;
974;SDS011;6115;49.296;10.602;2023-12-28T21:35:39;67.70;;;11.40;;
974;SDS011;6115;49.296;10.602;2023-12-28T21:40:39;68.10;;;11.27;;
974;SDS011;6115;49.296;10.602;2023-12-28T21:45:41;68.70;;;11.70;;
974;SDS011;6115;49.296;10.602;2023-12-28T21:50:42;68.67;;;11.00;;
974;SDS011;6115;49.296;10.602;2023-12-28T21:55:43;68.10;;;11.13;;
974;SDS011;6115;49.296;10.602;2023-12-28T22:00:43;72.20;;;11.57;;
974;SDS011;6115;49.296;10.602;2023-12-28T22:05:44;68.13;;;10.90;;
974;SDS011;6115;49.296;10.602;2023-12-28T22:10:44;68.00;;;11.30;;
974;SDS011;6115;49.296;10.602;2023-12-28T22:15:45;67.50;;;10.40;;
974;SDS011;6115;49.296;10.602;2023-12-28T22:20:54;67.27;;;10.13;;
974;SDS011;6115;49.296;10.602;2023-12-28T22:25:55;67.73;;;11.03;;
974;SDS011;6115;49.296;10.602;2023-12-28T22:30:55;68.27;;;10.97;;
974;SDS011;6115;49.296;10.602;2023-12-28T22:35:56;67.67;;;10.90;;
974;SDS011;6115;49.296;10.602;2023-12-28T22:40:56;70.13;;;12.37;;
974;SDS011;6115;49.296;10.602;2023-12-28T22:45:57;67.57;;;9.60;;
974;SDS011;6115;49.296;10.602;2023-12-28T22:50:57;67.97;;;10.73;;
974;SDS011;6115;49.296;10.602;2023-12-28T22:55:58;66.70;;;9.63;;
974;SDS011;6115;49.296;10.602;2023-12-28T23:00:59;66.87;;;9.80;;
974;SDS011;6115;49.296;10.602;2023-12-28T23:05:59;68.50;;;11.20;;
974;SDS011;6115;49.296;10.602;2023-12-28T23:11:01;67.20;;;10.10;;
974;SDS011;6115;49.296;10.602;2023-12-28T23:16:03;67.07;;;9.97;;
974;SDS011;6115;49.296;10.602;2023-12-28T23:21:04;66.77;;;10.00;;
974;SDS011;6115;49.296;10.602;2023-12-28T23:26:05;66.80;;;9.90;;
974;SDS011;6115;49.296;10.602;2023-12-28T23:31:06;67.20;;;10.40;;
974;SDS011;6115;49.296;10.602;2023-12-28T23:36:07;68.07;;;9.97;;
974;SDS011;6115;49.296;10.602;2023-12-28T23:41:09;66.83;;;9.60;;
974;SDS011;6115;49.296;10.602;2023-12-28T23:46:09;66.90;;;9.93;;
974;SDS011;6115;49.296;10.602;2023-12-28T23:51:10;67.00;;;10.00;;
974;SDS011;6115;49.296;10.602;2023-12-28T23:56:15;66.87;;;9.73;;
